createdAt,value
2019-02-07T00:01:43.722Z,-4.50
2019-02-07T00:04:13.726Z,-4.40
2019-02-07T00:06:43.221Z,-4.50
2019-02-07T00:09:12.921Z,-4.50
2019-02-07T00:11:42.471Z,-4.50
2019-02-07T00:14:12.066Z,-4.60
2019-02-07T00:16:41.686Z,-4.50
2019-02-07T00:19:11.228Z,-4.60
2019-02-07T00:21:40.916Z,-4.60
2019-02-07T00:24:10.546Z,-4.60
2019-02-07T00:26:40.107Z,-4.50
2019-02-07T00:29:09.812Z,-4.50
2019-02-07T00:31:39.487Z,-4.60
2019-02-07T00:34:09.326Z,-4.60
2019-02-07T00:36:38.927Z,-4.50
2019-02-07T00:39:09.322Z,-4.60
2019-02-07T00:41:39.242Z,-4.60
2019-02-07T00:44:08.915Z,-4.60
2019-02-07T00:46:38.458Z,-4.60
2019-02-07T00:49:07.977Z,-4.70
2019-02-07T00:51:37.560Z,-4.60
2019-02-07T00:54:07.122Z,-4.60
2019-02-07T00:56:39.322Z,-4.60
2019-02-07T00:59:08.210Z,-4.60
2019-02-07T01:01:37.916Z,-4.70
2019-02-07T01:04:07.511Z,-4.70
2019-02-07T01:06:37.101Z,-4.60
2019-02-07T01:09:08.647Z,-4.80
2019-02-07T01:11:38.177Z,-4.80
2019-02-07T01:14:07.749Z,-4.90
2019-02-07T01:16:37.306Z,-4.90
2019-02-07T01:19:06.891Z,-5.00
2019-02-07T01:21:36.427Z,-5.00
2019-02-07T01:24:06.768Z,-5.10
2019-02-07T01:26:36.326Z,-5.20
2019-02-07T01:29:05.892Z,-5.10
2019-02-07T01:31:35.486Z,-5.10
2019-02-07T01:34:05.258Z,-5.00
2019-02-07T01:36:34.854Z,-5.00
2019-02-07T01:39:07.299Z,-5.00
2019-02-07T01:41:36.899Z,-5.00
2019-02-07T01:44:06.634Z,-5.00
2019-02-07T01:46:36.227Z,-5.10
2019-02-07T01:49:05.883Z,-5.10
2019-02-07T01:51:35.435Z,-5.10
2019-02-07T01:54:05.288Z,-5.00
2019-02-07T01:56:34.826Z,-5.10
2019-02-07T01:59:04.453Z,-5.00
2019-02-07T02:01:34.077Z,-5.10
2019-02-07T02:04:03.673Z,-5.10
2019-02-07T02:06:33.284Z,-5.10
2019-02-07T02:09:02.831Z,-5.10
2019-02-07T02:11:32.394Z,-5.00
2019-02-07T02:14:01.931Z,-5.00
2019-02-07T02:16:31.539Z,-5.10
2019-02-07T02:19:01.167Z,-5.00
2019-02-07T02:21:31.052Z,-5.00
2019-02-07T02:24:00.642Z,-5.00
2019-02-07T02:26:30.183Z,-5.00
2019-02-07T02:28:59.858Z,-4.90
2019-02-07T02:31:29.386Z,-4.80
2019-02-07T02:33:59.045Z,-4.80
2019-02-07T02:36:29.051Z,-4.90
2019-02-07T02:38:58.619Z,-4.90
2019-02-07T02:41:28.304Z,-4.90
2019-02-07T02:43:57.868Z,-4.80
2019-02-07T02:46:27.488Z,-4.90
2019-02-07T02:48:57.032Z,-4.90
2019-02-07T02:51:27.069Z,-5.00
2019-02-07T02:53:58.843Z,-5.00
2019-02-07T02:56:28.439Z,-5.00
2019-02-07T02:58:58.051Z,-5.00
2019-02-07T03:01:36.104Z,-5.00
2019-02-07T03:04:23.569Z,-5.00
2019-02-07T03:07:14.838Z,-5.00
2019-02-07T03:10:16.294Z,-4.90
2019-02-07T03:13:13.151Z,-4.90
2019-02-07T03:15:56.298Z,-4.90
2019-02-07T03:18:40.302Z,-4.90
2019-02-07T03:21:24.074Z,-4.90
2019-02-07T03:24:21.396Z,-4.80
2019-02-07T03:27:03.186Z,-4.70
2019-02-07T03:29:50.138Z,-4.80
2019-02-07T03:32:30.839Z,-4.80
2019-02-07T03:35:21.311Z,-4.80
2019-02-07T03:38:00.788Z,-4.80
2019-02-07T03:40:47.599Z,-4.90
2019-02-07T03:43:48.164Z,-4.80
2019-02-07T03:46:35.031Z,-4.80
2019-02-07T03:49:24.228Z,-4.80
2019-02-07T03:52:18.628Z,-4.70
2019-02-07T03:55:09.297Z,-4.70
2019-02-07T03:58:03.637Z,-4.80
2019-02-07T04:00:47.111Z,-4.80
2019-02-07T04:03:47.767Z,-4.80
2019-02-07T04:06:54.447Z,-4.80
2019-02-07T04:09:45.401Z,-4.70
2019-02-07T04:12:26.395Z,-4.70
2019-02-07T04:15:26.783Z,-4.60
2019-02-07T04:18:15.275Z,-4.60
2019-02-07T04:21:22.008Z,-4.60
2019-02-07T04:24:18.250Z,-4.60
2019-02-07T04:27:04.728Z,-4.70
2019-02-07T04:29:44.585Z,-4.70
2019-02-07T04:32:33.039Z,-4.80
2019-02-07T04:35:28.451Z,-4.70
2019-02-07T04:38:15.217Z,-4.60
2019-02-07T04:41:02.192Z,-4.70
2019-02-07T04:43:56.716Z,-4.70
2019-02-07T04:46:51.027Z,-4.60
2019-02-07T04:49:48.680Z,-4.60
2019-02-07T04:52:35.530Z,-4.60
2019-02-07T04:55:30.669Z,-4.60
2019-02-07T04:58:22.254Z,-4.60
2019-02-07T05:01:02.937Z,-4.50
2019-02-07T05:03:49.761Z,-4.40
2019-02-07T05:06:28.270Z,-4.50
2019-02-07T05:09:34.726Z,-4.50
2019-02-07T05:12:23.308Z,-4.50
2019-02-07T05:15:21.064Z,-4.50
2019-02-07T05:18:12.611Z,-4.50
2019-02-07T05:20:59.263Z,-4.50
2019-02-07T05:23:47.951Z,-4.50
2019-02-07T05:26:31.365Z,-4.50
2019-02-07T05:29:12.886Z,-4.50
2019-02-07T05:32:16.568Z,-4.40
2019-02-07T05:35:16.912Z,-4.40
2019-02-07T05:38:05.440Z,-4.40
2019-02-07T05:40:52.353Z,-4.40
2019-02-07T05:43:40.804Z,-4.40
2019-02-07T05:46:35.472Z,-4.40
2019-02-07T05:49:35.843Z,-4.40
2019-02-07T05:52:18.748Z,-4.50
2019-02-07T05:55:03.101Z,-4.50
2019-02-07T05:57:40.785Z,-4.50
2019-02-07T06:00:38.931Z,-4.50
2019-02-07T06:03:39.515Z,-4.50
2019-02-07T06:06:19.322Z,-4.50
2019-02-07T06:09:10.962Z,-4.50
2019-02-07T06:12:11.327Z,-4.50
2019-02-07T06:14:59.381Z,-4.50
2019-02-07T06:17:53.595Z,-4.50
2019-02-07T06:20:36.438Z,-4.50
2019-02-07T06:23:39.867Z,-4.50
2019-02-07T06:26:40.633Z,-4.50
2019-02-07T06:29:25.602Z,-4.50
2019-02-07T06:32:14.319Z,-4.50
2019-02-07T06:34:59.923Z,-4.40
2019-02-07T06:37:47.091Z,-4.50
2019-02-07T06:40:34.250Z,-4.50
2019-02-07T06:43:21.701Z,-4.50
2019-02-07T06:46:10.158Z,-4.60
2019-02-07T06:48:57.431Z,-4.50
2019-02-07T06:52:00.974Z,-4.40
2019-02-07T06:55:07.679Z,-4.10
2019-02-07T06:57:58.941Z,-4.00
2019-02-07T07:00:45.894Z,-4.00
2019-02-07T07:03:37.148Z,-3.80
2019-02-07T07:06:28.728Z,-4.00
2019-02-07T07:09:22.987Z,-4.20
2019-02-07T07:12:23.283Z,-4.20
2019-02-07T07:15:10.193Z,-4.20
2019-02-07T07:17:57.067Z,-4.20
2019-02-07T07:20:56.398Z,-4.20
2019-02-07T07:23:51.171Z,-4.20
2019-02-07T07:26:38.034Z,-4.10
2019-02-07T07:29:25.191Z,-4.00
2019-02-07T07:32:25.451Z,-3.90
2019-02-07T07:35:12.676Z,-4.00
2019-02-07T07:37:57.263Z,-4.00
2019-02-07T07:40:48.882Z,-4.00
2019-02-07T07:43:31.551Z,-4.00
2019-02-07T07:46:22.806Z,-3.80
2019-02-07T07:49:10.476Z,-3.80
2019-02-07T07:51:57.007Z,-3.70
2019-02-07T07:54:39.792Z,-3.60
2019-02-07T07:57:31.324Z,-3.70
2019-02-07T08:00:25.854Z,-3.80
2019-02-07T08:03:13.022Z,-3.80
2019-02-07T08:06:19.849Z,-3.70
2019-02-07T08:08:59.138Z,-3.70
2019-02-07T08:11:44.439Z,-3.60
2019-02-07T08:14:50.894Z,-3.50
2019-02-07T08:17:47.157Z,-3.50
2019-02-07T08:20:39.185Z,-3.70
2019-02-07T08:23:30.630Z,-3.60
2019-02-07T08:26:34.379Z,-3.50
2019-02-07T08:29:21.283Z,-3.20
2019-02-07T08:32:18.605Z,-3.20
2019-02-07T08:35:05.759Z,-3.20
2019-02-07T08:37:52.948Z,-3.20
2019-02-07T08:40:59.532Z,-3.30
2019-02-07T08:43:56.669Z,-3.30
2019-02-07T08:46:43.633Z,-3.30
2019-02-07T08:49:27.317Z,-3.40
2019-02-07T08:52:14.466Z,-3.20
2019-02-07T08:55:02.916Z,-3.20
2019-02-07T08:57:40.294Z,-3.10
2019-02-07T09:00:40.827Z,-2.90
2019-02-07T09:03:32.354Z,-3.00
2019-02-07T09:06:16.978Z,-3.00
2019-02-07T09:09:04.126Z,-3.00
2019-02-07T09:12:04.755Z,-2.90
2019-02-07T09:14:51.917Z,-2.80
2019-02-07T09:17:40.410Z,-2.70
2019-02-07T09:20:45.260Z,-2.60
2019-02-07T09:23:28.263Z,-2.60
2019-02-07T09:26:25.301Z,-2.60
2019-02-07T09:29:03.730Z,-2.60
2019-02-07T09:32:01.237Z,-2.40
2019-02-07T09:34:37.874Z,-2.30
2019-02-07T09:37:24.842Z,-2.50
2019-02-07T09:40:01.234Z,-2.50
2019-02-07T09:42:37.508Z,-2.50
2019-02-07T09:45:30.384Z,-2.40
2019-02-07T09:48:28.127Z,-2.30
2019-02-07T09:51:16.574Z,-2.40
2019-02-07T09:54:17.473Z,-2.20
2019-02-07T09:56:54.919Z,-2.10
2019-02-07T09:59:51.614Z,-2.00
2019-02-07T10:02:41.017Z,-2.00
2019-02-07T10:05:39.530Z,-1.80
2019-02-07T10:08:19.492Z,-1.80
2019-02-07T10:11:26.123Z,-1.70
2019-02-07T10:14:29.355Z,-1.70
2019-02-07T10:17:11.959Z,-1.70
2019-02-07T10:20:09.171Z,-1.70
2019-02-07T10:23:15.579Z,-1.60
2019-02-07T10:26:09.970Z,-1.60
2019-02-07T10:28:57.081Z,-1.40
2019-02-07T10:31:41.293Z,-1.30
2019-02-07T10:34:38.639Z,-1.30
2019-02-07T10:37:27.115Z,-1.30
2019-02-07T10:40:18.387Z,-1.10
2019-02-07T10:43:09.391Z,-1.10
2019-02-07T10:45:57.898Z,-1.00
2019-02-07T10:48:58.406Z,-0.90
2019-02-07T10:51:49.916Z,-0.70
2019-02-07T10:54:37.346Z,-0.60
2019-02-07T10:57:23.581Z,-0.60
2019-02-07T11:00:30.558Z,-0.70
2019-02-07T11:03:17.634Z,-0.50
2019-02-07T11:05:59.154Z,-0.60
2019-02-07T11:09:05.572Z,-0.60
2019-02-07T11:11:52.730Z,-0.40
2019-02-07T11:14:41.260Z,-0.40
2019-02-07T11:17:42.871Z,-0.40
2019-02-07T11:20:35.073Z,-0.20
2019-02-07T11:23:14.616Z,-0.20
2019-02-07T11:26:04.582Z,0.00
2019-02-07T11:28:45.611Z,-0.10
2019-02-07T11:31:33.290Z,0.00
2019-02-07T11:34:20.387Z,0.00
2019-02-07T11:37:11.871Z,0.00
2019-02-07T11:40:01.088Z,0.10
2019-02-07T11:42:48.241Z,0.10
2019-02-07T11:45:45.961Z,0.00
2019-02-07T11:48:34.445Z,0.10
2019-02-07T11:51:26.391Z,0.00
2019-02-07T11:54:21.458Z,0.00
2019-02-07T11:57:12.906Z,0.10
2019-02-07T11:59:59.771Z,0.20
2019-02-07T12:03:00.305Z,0.20
2019-02-07T12:05:39.091Z,0.20
2019-02-07T12:08:29.517Z,0.10
2019-02-07T12:11:12.101Z,0.10
2019-02-07T12:13:54.004Z,0.10
2019-02-07T12:16:51.330Z,0.20
2019-02-07T12:19:58.148Z,0.10
2019-02-07T12:22:50.674Z,0.10
2019-02-07T12:25:42.015Z,0.00
2019-02-07T12:28:42.687Z,-0.10
2019-02-07T12:31:26.190Z,-0.10
2019-02-07T12:34:14.556Z,-0.10
2019-02-07T12:37:08.962Z,0.00
2019-02-07T12:39:56.043Z,0.00
2019-02-07T12:42:43.404Z,0.00
2019-02-07T12:45:35.142Z,0.00
2019-02-07T12:48:22.363Z,0.00
2019-02-07T12:51:19.756Z,0.00
2019-02-07T12:54:12.002Z,0.00
2019-02-07T12:56:55.331Z,0.00
2019-02-07T12:59:43.871Z,0.10
2019-02-07T13:02:35.358Z,0.10
2019-02-07T13:05:30.406Z,0.10
2019-02-07T13:08:09.424Z,0.00
2019-02-07T13:11:12.822Z,-0.10
2019-02-07T13:14:10.200Z,0.00
2019-02-07T13:16:59.140Z,0.00
2019-02-07T13:19:47.645Z,0.10
2019-02-07T13:22:51.310Z,0.00
2019-02-07T13:25:48.669Z,0.10
2019-02-07T13:28:24.456Z,0.00
2019-02-07T13:31:11.340Z,0.00
2019-02-07T13:34:07.739Z,0.00
2019-02-07T13:36:54.566Z,0.00
2019-02-07T13:39:41.377Z,-0.10
2019-02-07T13:42:32.942Z,-0.10
2019-02-07T13:45:19.846Z,-0.10
2019-02-07T13:48:08.346Z,-0.10
2019-02-07T13:50:55.163Z,-0.10
2019-02-07T13:53:49.904Z,-0.10
2019-02-07T13:56:41.358Z,-0.10
2019-02-07T13:59:28.454Z,-0.10
2019-02-07T14:02:15.789Z,-0.10
2019-02-07T14:05:13.540Z,-0.10
2019-02-07T14:08:10.845Z,-0.20
2019-02-07T14:11:03.902Z,-0.20
2019-02-07T14:14:04.278Z,-0.20
2019-02-07T14:16:53.371Z,-0.20
2019-02-07T14:19:41.897Z,-0.10
2019-02-07T14:22:48.549Z,-0.20
2019-02-07T14:25:35.616Z,-0.10
2019-02-07T14:28:29.857Z,0.00
2019-02-07T14:31:14.194Z,-0.10
2019-02-07T14:34:01.368Z,0.00
2019-02-07T14:36:55.349Z,0.00
2019-02-07T14:39:47.530Z,0.00
2019-02-07T14:42:51.183Z,0.00
2019-02-07T14:45:34.451Z,0.00
2019-02-07T14:48:04.164Z,0.00
2019-02-07T14:50:33.726Z,0.10
2019-02-07T14:53:05.620Z,0.10
2019-02-07T14:55:34.965Z,0.00
2019-02-07T14:58:04.598Z,0.10
2019-02-07T15:00:36.562Z,0.20
2019-02-07T15:03:07.231Z,0.20
2019-02-07T15:05:36.809Z,0.20
2019-02-07T15:08:06.616Z,0.20
2019-02-07T15:10:36.129Z,0.30
2019-02-07T15:13:05.914Z,0.30
2019-02-07T15:15:35.489Z,0.30
2019-02-07T15:18:05.329Z,0.30
2019-02-07T15:20:34.926Z,0.30
2019-02-07T15:23:04.433Z,0.30
2019-02-07T15:25:34.187Z,0.30
2019-02-07T15:28:03.907Z,0.20
2019-02-07T15:30:33.589Z,0.20
2019-02-07T15:33:03.143Z,0.30
2019-02-07T15:35:35.499Z,0.30
2019-02-07T15:38:05.130Z,0.30
2019-02-07T15:40:34.748Z,0.30
2019-02-07T15:43:04.486Z,0.30
2019-02-07T15:45:34.254Z,0.30
2019-02-07T15:48:03.791Z,0.30
2019-02-07T15:50:38.260Z,0.30
2019-02-07T15:53:05.272Z,0.30
2019-02-07T15:55:35.242Z,0.30
2019-02-07T15:58:05.022Z,0.40
2019-02-07T16:00:56.046Z,0.40
2019-02-07T16:03:52.414Z,0.40
2019-02-07T16:06:21.979Z,0.40
2019-02-07T16:08:51.521Z,0.40
2019-02-07T16:11:21.149Z,0.40
2019-02-07T16:14:12.546Z,0.40
2019-02-07T16:16:42.118Z,0.40
2019-02-07T16:19:11.727Z,0.40
2019-02-07T16:21:41.269Z,0.40
2019-02-07T16:24:10.879Z,0.40
2019-02-07T16:26:40.441Z,0.40
2019-02-07T16:29:10.066Z,0.40
2019-02-07T16:31:39.845Z,0.50
2019-02-07T16:34:09.964Z,0.40
2019-02-07T16:36:39.714Z,0.40
2019-02-07T16:39:10.091Z,0.40
2019-02-07T16:41:39.766Z,0.40
2019-02-07T16:44:09.302Z,0.40
2019-02-07T16:46:38.889Z,0.50
2019-02-07T16:49:08.717Z,0.40
2019-02-07T16:51:38.524Z,0.40
2019-02-07T16:54:08.060Z,0.50
2019-02-07T16:56:37.614Z,0.50
2019-02-07T16:59:07.215Z,0.50
2019-02-07T17:01:37.083Z,0.50
2019-02-07T17:04:07.513Z,0.50
2019-02-07T17:06:37.396Z,0.50
2019-02-07T17:09:16.371Z,0.50
2019-02-07T17:11:46.127Z,0.50
2019-02-07T17:14:15.810Z,0.50
2019-02-07T17:16:45.787Z,0.50
2019-02-07T17:19:15.294Z,0.50
2019-02-07T17:21:45.025Z,0.50
2019-02-07T17:24:14.655Z,0.50
2019-02-07T17:26:44.269Z,0.50
2019-02-07T17:29:13.889Z,0.50
2019-02-07T17:31:43.486Z,0.50
2019-02-07T17:34:13.167Z,0.50
2019-02-07T17:36:42.738Z,0.60
2019-02-07T17:39:12.380Z,0.60
2019-02-07T17:41:41.974Z,0.60
2019-02-07T17:44:11.502Z,0.50
2019-02-07T17:46:41.252Z,0.60
2019-02-07T17:49:10.803Z,0.60
2019-02-07T17:51:40.410Z,0.60
2019-02-07T17:54:18.633Z,0.60
2019-02-07T17:56:41.166Z,0.60
2019-02-07T17:59:10.723Z,0.80
2019-02-07T18:01:40.310Z,0.80
2019-02-07T18:04:09.863Z,0.70
2019-02-07T18:06:39.513Z,0.60
2019-02-07T18:09:10.113Z,0.60
2019-02-07T18:11:39.860Z,0.70
2019-02-07T18:14:10.370Z,0.70
2019-02-07T18:16:41.545Z,0.70
2019-02-07T18:19:11.242Z,0.70
2019-02-07T18:21:40.806Z,0.70
2019-02-07T18:24:13.048Z,0.80
2019-02-07T18:26:42.647Z,0.70
2019-02-07T18:29:13.553Z,0.70
2019-02-07T18:31:44.795Z,0.70
2019-02-07T18:34:14.267Z,0.80
2019-02-07T18:36:43.877Z,1.00
2019-02-07T18:39:14.901Z,1.00
2019-02-07T18:41:44.477Z,1.10
2019-02-07T18:44:14.288Z,1.00
2019-02-07T18:46:45.279Z,1.10
2019-02-07T18:49:15.735Z,1.10
2019-02-07T18:51:46.037Z,1.00
2019-02-07T18:54:15.640Z,1.10
2019-02-07T18:56:45.245Z,1.00
2019-02-07T18:59:14.984Z,1.00
2019-02-07T19:01:44.524Z,1.20
2019-02-07T19:04:15.848Z,1.10
2019-02-07T19:06:46.769Z,1.00
2019-02-07T19:09:17.699Z,1.00
2019-02-07T19:11:47.233Z,0.90
2019-02-07T19:14:16.882Z,0.90
2019-02-07T19:16:46.748Z,0.90
2019-02-07T19:19:16.267Z,0.90
2019-02-07T19:21:56.482Z,0.80
2019-02-07T19:24:17.101Z,0.80
2019-02-07T19:26:46.859Z,0.70
2019-02-07T19:29:16.444Z,0.70
2019-02-07T19:31:46.015Z,0.70
2019-02-07T19:34:15.554Z,0.70
2019-02-07T19:36:45.118Z,0.70
2019-02-07T19:39:14.659Z,0.70
2019-02-07T19:41:44.227Z,0.80
2019-02-07T19:44:13.767Z,0.80
2019-02-07T19:46:43.322Z,0.80
2019-02-07T19:49:12.947Z,0.80
2019-02-07T19:51:42.502Z,0.70
2019-02-07T19:54:12.145Z,0.70
2019-02-07T19:56:41.663Z,0.60
2019-02-07T19:59:11.355Z,0.50
2019-02-07T20:01:40.900Z,0.50
2019-02-07T20:04:10.552Z,0.40
2019-02-07T20:06:41.621Z,0.40
2019-02-07T20:09:13.655Z,0.30
2019-02-07T20:11:43.545Z,0.30
2019-02-07T20:14:13.301Z,0.30
2019-02-07T20:16:42.833Z,0.20
2019-02-07T20:19:12.473Z,0.20
2019-02-07T20:21:42.444Z,0.20
2019-02-07T20:24:12.182Z,0.20
2019-02-07T20:26:41.750Z,0.10
2019-02-07T20:29:14.096Z,0.10
2019-02-07T20:31:43.906Z,0.10
2019-02-07T20:34:15.027Z,0.10
2019-02-07T20:36:45.056Z,0.00
2019-02-07T20:39:14.612Z,0.10
2019-02-07T20:41:44.520Z,0.00
2019-02-07T20:44:14.857Z,0.10
2019-02-07T20:46:45.676Z,0.00
2019-02-07T20:49:15.615Z,0.10
2019-02-07T20:51:48.451Z,0.10
2019-02-07T20:54:19.759Z,0.10
2019-02-07T20:56:51.131Z,0.10
2019-02-07T20:59:22.269Z,0.20
2019-02-07T21:01:53.570Z,0.20
2019-02-07T21:04:24.835Z,0.20
2019-02-07T21:06:56.172Z,0.20
2019-02-07T21:09:27.623Z,0.20
2019-02-07T21:11:59.534Z,0.20
2019-02-07T21:14:31.251Z,0.10
2019-02-07T21:17:02.790Z,0.10
2019-02-07T21:19:34.266Z,0.00
2019-02-07T21:22:05.793Z,0.00
2019-02-07T21:24:37.209Z,-0.10
2019-02-07T21:27:08.563Z,-0.10
2019-02-07T21:29:40.197Z,0.00
2019-02-07T21:32:11.609Z,0.00
2019-02-07T21:34:41.223Z,-0.10
2019-02-07T21:37:10.901Z,0.00
2019-02-07T21:39:40.467Z,0.10
2019-02-07T21:42:10.057Z,0.10
2019-02-07T21:44:39.603Z,0.10
2019-02-07T21:47:09.133Z,0.10
2019-02-07T21:49:38.792Z,0.10
2019-02-07T21:52:08.358Z,0.00
2019-02-07T21:54:38.085Z,0.00
2019-02-07T21:57:07.932Z,-0.10
2019-02-07T21:59:37.587Z,-0.10
2019-02-07T22:02:07.151Z,-0.20
2019-02-07T22:04:36.701Z,-0.30
2019-02-07T22:07:06.271Z,-0.30
2019-02-07T22:09:35.831Z,-0.40
2019-02-07T22:12:05.624Z,-0.40
2019-02-07T22:14:35.307Z,-0.50
2019-02-07T22:17:04.962Z,-0.60
2019-02-07T22:19:34.499Z,-0.60
2019-02-07T22:22:04.150Z,-0.60
2019-02-07T22:24:33.755Z,-0.60
2019-02-07T22:27:03.500Z,-0.70
2019-02-07T22:29:33.095Z,-0.70
2019-02-07T22:32:02.668Z,-0.70
2019-02-07T22:34:32.243Z,-0.80
2019-02-07T22:37:01.761Z,-0.80
2019-02-07T22:39:37.936Z,-0.80
2019-02-07T22:42:07.451Z,-0.80
2019-02-07T22:44:37.109Z,-0.90
2019-02-07T22:47:06.654Z,-1.00
2019-02-07T22:49:36.238Z,-1.00
2019-02-07T22:52:06.091Z,-1.00
2019-02-07T22:54:35.673Z,-1.00
2019-02-07T22:57:05.506Z,-1.00
2019-02-07T22:59:35.143Z,-1.10
2019-02-07T23:02:06.523Z,-1.10
2019-02-07T23:04:36.139Z,-1.20
2019-02-07T23:07:05.926Z,-1.10
2019-02-07T23:09:35.842Z,-1.10
2019-02-07T23:12:06.101Z,-1.20
2019-02-07T23:14:35.786Z,-1.30
2019-02-07T23:17:05.847Z,-1.30
2019-02-07T23:19:35.414Z,-1.30
2019-02-07T23:22:05.690Z,-1.40
2019-02-07T23:24:35.478Z,-1.40
2019-02-07T23:27:05.225Z,-1.40
2019-02-07T23:29:34.825Z,-1.30
2019-02-07T23:32:04.533Z,-1.30
2019-02-07T23:34:34.123Z,-1.30
2019-02-07T23:37:03.679Z,-1.30
2019-02-07T23:39:33.426Z,-1.40
2019-02-07T23:42:02.998Z,-1.40
2019-02-07T23:44:32.577Z,-1.40
2019-02-07T23:47:02.157Z,-1.40
2019-02-07T23:49:31.745Z,-1.30
2019-02-07T23:52:01.277Z,-1.20
2019-02-07T23:54:31.241Z,-1.30
2019-02-07T23:57:00.800Z,-1.30
2019-02-07T23:59:30.409Z,-1.40
